sensor_id;sensor_type;location;lat;lon;timestamp;temperature;humidity
17423;DHT22;8829;47.932;7.810;2024-02-21T00:00:11;6.50;99.90
17423;DHT22;8829;47.932;7.810;2024-02-21T00:02:38;6.50;99.90
17423;DHT22;8829;47.932;7.810;2024-02-21T00:05:05;6.40;99.90
17423;DHT22;8829;47.932;7.810;2024-02-21T00:07:33;6.30;99.90
17423;DHT22;8829;47.932;7.810;2024-02-21T00:10:00;6.30;99.90
17423;DHT22;8829;47.932;7.810;2024-02-21T00:12:27;6.10;99.90
17423;DHT22;8829;47.932;7.810;2024-02-21T00:14:53;6.20;99.90
17423;DHT22;8829;47.932;7.810;2024-02-21T00:17:20;6.20;99.90
17423;DHT22;8829;47.932;7.810;2024-02-21T00:19:46;6.20;99.90
17423;DHT22;8829;47.932;7.810;2024-02-21T00:22:13;6.00;99.90
17423;DHT22;8829;47.932;7.810;2024-02-21T00:24:41;6.10;99.90
17423;DHT22;8829;47.932;7.810;2024-02-21T00:27:08;6.00;99.90
17423;DHT22;8829;47.932;7.810;2024-02-21T00:29:35;6.00;99.90
17423;DHT22;8829;47.932;7.810;2024-02-21T00:32:02;6.00;99.90
17423;DHT22;8829;47.932;7.810;2024-02-21T00:34:28;5.90;99.90
17423;DHT22;8829;47.932;7.810;2024-02-21T00:36:55;5.90;99.90
17423;DHT22;8829;47.932;7.810;2024-02-21T00:39:22;5.90;99.90
17423;DHT22;8829;47.932;7.810;2024-02-21T00:41:50;6.00;99.90
17423;DHT22;8829;47.932;7.810;2024-02-21T00:44:16;6.00;99.90
17423;DHT22;8829;47.932;7.810;2024-02-21T00:46:43;5.90;99.90
17423;DHT22;8829;47.932;7.810;2024-02-21T00:49:10;5.90;99.90
17423;DHT22;8829;47.932;7.810;2024-02-21T00:51:36;6.00;99.90
17423;DHT22;8829;47.932;7.810;2024-02-21T00:54:03;6.00;99.90
17423;DHT22;8829;47.932;7.810;2024-02-21T00:56:30;6.00;99.90
17423;DHT22;8829;47.932;7.810;2024-02-21T00:58:58;6.10;99.90
17423;DHT22;8829;47.932;7.810;2024-02-21T01:01:25;6.10;99.90
17423;DHT22;8829;47.932;7.810;2024-02-21T01:03:52;6.20;99.90
17423;DHT22;8829;47.932;7.810;2024-02-21T01:06:19;6.20;99.90
17423;DHT22;8829;47.932;7.810;2024-02-21T01:08:46;6.40;99.90
17423;DHT22;8829;47.932;7.810;2024-02-21T01:11:13;6.40;99.90
17423;DHT22;8829;47.932;7.810;2024-02-21T01:13:40;6.50;99.90
17423;DHT22;8829;47.932;7.810;2024-02-21T01:16:08;6.40;99.90
17423;DHT22;8829;47.932;7.810;2024-02-21T01:18:37;6.40;99.90
17423;DHT22;8829;47.932;7.810;2024-02-21T01:21:04;6.40;99.90
17423;DHT22;8829;47.932;7.810;2024-02-21T01:23:32;6.40;99.90
17423;DHT22;8829;47.932;7.810;2024-02-21T01:25:59;6.40;99.90
17423;DHT22;8829;47.932;7.810;2024-02-21T01:28:26;6.40;99.90
17423;DHT22;8829;47.932;7.810;2024-02-21T01:30:52;6.40;99.90
17423;DHT22;8829;47.932;7.810;2024-02-21T01:33:20;6.50;99.90
17423;DHT22;8829;47.932;7.810;2024-02-21T01:35:47;6.40;99.90
17423;DHT22;8829;47.932;7.810;2024-02-21T01:38:14;6.40;99.90
17423;DHT22;8829;47.932;7.810;2024-02-21T01:40:41;6.40;99.90
17423;DHT22;8829;47.932;7.810;2024-02-21T01:43:16;6.50;99.90
17423;DHT22;8829;47.932;7.810;2024-02-21T01:45:43;6.60;99.90
17423;DHT22;8829;47.932;7.810;2024-02-21T01:48:09;6.70;99.90
17423;DHT22;8829;47.932;7.810;2024-02-21T01:50:38;6.70;99.90
17423;DHT22;8829;47.932;7.810;2024-02-21T01:53:05;6.70;99.90
17423;DHT22;8829;47.932;7.810;2024-02-21T01:55:32;6.60;99.90
17423;DHT22;8829;47.932;7.810;2024-02-21T01:57:59;6.50;99.90
17423;DHT22;8829;47.932;7.810;2024-02-21T02:00:27;6.40;99.90
17423;DHT22;8829;47.932;7.810;2024-02-21T02:02:54;6.40;99.90
17423;DHT22;8829;47.932;7.810;2024-02-21T02:05:22;6.30;99.90
17423;DHT22;8829;47.932;7.810;2024-02-21T02:07:50;6.20;99.90
17423;DHT22;8829;47.932;7.810;2024-02-21T02:10:17;6.20;99.90
17423;DHT22;8829;47.932;7.810;2024-02-21T02:12:43;6.20;99.90
17423;DHT22;8829;47.932;7.810;2024-02-21T02:15:10;6.30;99.90
17423;DHT22;8829;47.932;7.810;2024-02-21T02:17:37;6.30;99.90
17423;DHT22;8829;47.932;7.810;2024-02-21T02:20:04;6.30;99.90
17423;DHT22;8829;47.932;7.810;2024-02-21T02:22:32;6.40;99.90
17423;DHT22;8829;47.932;7.810;2024-02-21T02:25:03;6.30;99.90
17423;DHT22;8829;47.932;7.810;2024-02-21T02:27:30;6.20;99.90
17423;DHT22;8829;47.932;7.810;2024-02-21T02:29:57;6.20;99.90
17423;DHT22;8829;47.932;7.810;2024-02-21T02:32:24;6.30;99.90
17423;DHT22;8829;47.932;7.810;2024-02-21T02:34:50;6.30;99.90
17423;DHT22;8829;47.932;7.810;2024-02-21T02:37:17;6.50;99.90
17423;DHT22;8829;47.932;7.810;2024-02-21T02:39:44;6.40;99.90
17423;DHT22;8829;47.932;7.810;2024-02-21T02:42:12;6.30;99.90
17423;DHT22;8829;47.932;7.810;2024-02-21T02:44:39;6.10;99.90
17423;DHT22;8829;47.932;7.810;2024-02-21T02:47:05;5.90;99.90
17423;DHT22;8829;47.932;7.810;2024-02-21T02:49:32;5.80;99.90
17423;DHT22;8829;47.932;7.810;2024-02-21T02:51:59;5.80;99.90
17423;DHT22;8829;47.932;7.810;2024-02-21T02:54:25;5.90;99.90
17423;DHT22;8829;47.932;7.810;2024-02-21T02:56:53;6.00;99.90
17423;DHT22;8829;47.932;7.810;2024-02-21T02:59:21;5.90;99.90
17423;DHT22;8829;47.932;7.810;2024-02-21T03:01:47;5.90;99.90
17423;DHT22;8829;47.932;7.810;2024-02-21T03:04:14;5.90;99.90
17423;DHT22;8829;47.932;7.810;2024-02-21T03:06:41;5.90;99.90
17423;DHT22;8829;47.932;7.810;2024-02-21T03:09:07;5.90;99.90
17423;DHT22;8829;47.932;7.810;2024-02-21T03:11:35;5.90;99.90
17423;DHT22;8829;47.932;7.810;2024-02-21T03:14:02;5.90;99.90
17423;DHT22;8829;47.932;7.810;2024-02-21T03:16:30;5.90;99.90
17423;DHT22;8829;47.932;7.810;2024-02-21T03:18:57;5.90;99.90
17423;DHT22;8829;47.932;7.810;2024-02-21T03:21:23;5.80;99.90
17423;DHT22;8829;47.932;7.810;2024-02-21T03:23:50;5.90;99.90
17423;DHT22;8829;47.932;7.810;2024-02-21T03:26:17;5.90;99.90
17423;DHT22;8829;47.932;7.810;2024-02-21T03:28:44;5.90;99.90
17423;DHT22;8829;47.932;7.810;2024-02-21T03:31:12;5.90;99.90
17423;DHT22;8829;47.932;7.810;2024-02-21T03:33:42;5.90;99.90
17423;DHT22;8829;47.932;7.810;2024-02-21T03:36:13;5.60;99.90
17423;DHT22;8829;47.932;7.810;2024-02-21T03:38:40;5.40;99.90
17423;DHT22;8829;47.932;7.810;2024-02-21T03:41:06;5.20;99.90
17423;DHT22;8829;47.932;7.810;2024-02-21T03:43:33;5.20;99.90
17423;DHT22;8829;47.932;7.810;2024-02-21T03:46:00;5.20;99.90
17423;DHT22;8829;47.932;7.810;2024-02-21T03:48:26;5.40;99.90
17423;DHT22;8829;47.932;7.810;2024-02-21T03:50:56;5.40;99.90
17423;DHT22;8829;47.932;7.810;2024-02-21T03:53:22;5.40;99.90
17423;DHT22;8829;47.932;7.810;2024-02-21T03:55:49;5.30;99.90
17423;DHT22;8829;47.932;7.810;2024-02-21T03:58:16;5.30;99.90
17423;DHT22;8829;47.932;7.810;2024-02-21T04:00:42;5.30;99.90
17423;DHT22;8829;47.932;7.810;2024-02-21T04:03:09;5.30;99.90
17423;DHT22;8829;47.932;7.810;2024-02-21T04:05:35;5.20;99.90
17423;DHT22;8829;47.932;7.810;2024-02-21T04:08:05;5.00;99.90
17423;DHT22;8829;47.932;7.810;2024-02-21T04:10:31;5.10;99.90
17423;DHT22;8829;47.932;7.810;2024-02-21T04:12:58;5.10;99.90
17423;DHT22;8829;47.932;7.810;2024-02-21T04:15:25;5.10;99.90
17423;DHT22;8829;47.932;7.810;2024-02-21T04:17:51;5.10;99.90
17423;DHT22;8829;47.932;7.810;2024-02-21T04:20:18;5.00;99.90
17423;DHT22;8829;47.932;7.810;2024-02-21T04:22:45;4.90;99.90
17423;DHT22;8829;47.932;7.810;2024-02-21T04:25:13;4.90;99.90
17423;DHT22;8829;47.932;7.810;2024-02-21T04:27:40;5.00;99.90
17423;DHT22;8829;47.932;7.810;2024-02-21T04:30:07;5.00;99.90
17423;DHT22;8829;47.932;7.810;2024-02-21T04:32:35;4.90;99.90
17423;DHT22;8829;47.932;7.810;2024-02-21T04:35:01;4.80;99.90
17423;DHT22;8829;47.932;7.810;2024-02-21T04:37:28;4.70;99.90
17423;DHT22;8829;47.932;7.810;2024-02-21T04:39:55;4.70;99.90
17423;DHT22;8829;47.932;7.810;2024-02-21T04:42:23;4.70;99.90
17423;DHT22;8829;47.932;7.810;2024-02-21T04:44:49;4.60;99.90
17423;DHT22;8829;47.932;7.810;2024-02-21T04:47:16;4.70;99.90
17423;DHT22;8829;47.932;7.810;2024-02-21T04:49:43;4.60;99.90
17423;DHT22;8829;47.932;7.810;2024-02-21T04:52:09;4.50;99.90
17423;DHT22;8829;47.932;7.810;2024-02-21T04:54:36;4.20;99.90
17423;DHT22;8829;47.932;7.810;2024-02-21T04:57:03;4.20;99.90
17423;DHT22;8829;47.932;7.810;2024-02-21T04:59:32;4.30;99.90
17423;DHT22;8829;47.932;7.810;2024-02-21T05:02:00;4.30;99.90
17423;DHT22;8829;47.932;7.810;2024-02-21T05:04:27;4.30;99.90
17423;DHT22;8829;47.932;7.810;2024-02-21T05:06:53;4.40;99.90
17423;DHT22;8829;47.932;7.810;2024-02-21T05:09:20;4.40;99.90
17423;DHT22;8829;47.932;7.810;2024-02-21T05:11:47;4.60;99.90
17423;DHT22;8829;47.932;7.810;2024-02-21T05:14:14;4.60;99.90
17423;DHT22;8829;47.932;7.810;2024-02-21T05:16:42;4.60;99.90
17423;DHT22;8829;47.932;7.810;2024-02-21T05:19:08;4.60;99.90
17423;DHT22;8829;47.932;7.810;2024-02-21T05:21:35;4.60;99.90
17423;DHT22;8829;47.932;7.810;2024-02-21T05:24:02;4.50;99.90
17423;DHT22;8829;47.932;7.810;2024-02-21T05:26:29;4.50;99.90
17423;DHT22;8829;47.932;7.810;2024-02-21T05:28:55;4.60;99.90
17423;DHT22;8829;47.932;7.810;2024-02-21T05:31:22;4.40;99.90
17423;DHT22;8829;47.932;7.810;2024-02-21T05:33:50;4.40;99.90
17423;DHT22;8829;47.932;7.810;2024-02-21T05:36:17;4.30;99.90
17423;DHT22;8829;47.932;7.810;2024-02-21T05:38:44;4.20;99.90
17423;DHT22;8829;47.932;7.810;2024-02-21T05:41:11;4.20;99.90
17423;DHT22;8829;47.932;7.810;2024-02-21T05:43:37;4.20;99.90
17423;DHT22;8829;47.932;7.810;2024-02-21T05:46:04;4.20;99.90
17423;DHT22;8829;47.932;7.810;2024-02-21T05:48:31;4.20;99.90
17423;DHT22;8829;47.932;7.810;2024-02-21T05:51:01;4.20;99.90
17423;DHT22;8829;47.932;7.810;2024-02-21T05:53:28;4.30;99.90
17423;DHT22;8829;47.932;7.810;2024-02-21T05:55:55;4.40;99.90
17423;DHT22;8829;47.932;7.810;2024-02-21T05:58:21;4.60;99.90
17423;DHT22;8829;47.932;7.810;2024-02-21T06:00:48;4.60;99.90
17423;DHT22;8829;47.932;7.810;2024-02-21T06:03:15;4.60;99.90
17423;DHT22;8829;47.932;7.810;2024-02-21T06:05:41;4.50;99.90
17423;DHT22;8829;47.932;7.810;2024-02-21T06:08:09;4.50;99.90
17423;DHT22;8829;47.932;7.810;2024-02-21T06:10:36;4.40;99.90
17423;DHT22;8829;47.932;7.810;2024-02-21T06:13:03;4.40;99.90
17423;DHT22;8829;47.932;7.810;2024-02-21T06:15:30;4.30;99.90
17423;DHT22;8829;47.932;7.810;2024-02-21T06:17:56;4.30;99.90
17423;DHT22;8829;47.932;7.810;2024-02-21T06:20:23;4.20;99.90
17423;DHT22;8829;47.932;7.810;2024-02-21T06:22:49;4.20;99.90
17423;DHT22;8829;47.932;7.810;2024-02-21T06:25:18;4.20;99.90
17423;DHT22;8829;47.932;7.810;2024-02-21T06:27:44;4.10;99.90
17423;DHT22;8829;47.932;7.810;2024-02-21T06:30:12;4.10;99.90
17423;DHT22;8829;47.932;7.810;2024-02-21T06:32:39;4.10;99.90
17423;DHT22;8829;47.932;7.810;2024-02-21T06:35:06;4.10;99.90
17423;DHT22;8829;47.932;7.810;2024-02-21T06:37:32;4.10;99.90
17423;DHT22;8829;47.932;7.810;2024-02-21T06:39:59;4.10;99.90
17423;DHT22;8829;47.932;7.810;2024-02-21T06:42:27;4.10;99.90
17423;DHT22;8829;47.932;7.810;2024-02-21T06:44:54;4.10;99.90
17423;DHT22;8829;47.932;7.810;2024-02-21T06:47:21;4.20;99.90
17423;DHT22;8829;47.932;7.810;2024-02-21T06:49:49;4.20;99.90
17423;DHT22;8829;47.932;7.810;2024-02-21T06:52:17;4.30;99.90
17423;DHT22;8829;47.932;7.810;2024-02-21T06:54:45;4.40;99.90
17423;DHT22;8829;47.932;7.810;2024-02-21T06:57:12;4.50;99.90
17423;DHT22;8829;47.932;7.810;2024-02-21T06:59:40;4.60;99.90
17423;DHT22;8829;47.932;7.810;2024-02-21T07:02:07;4.70;99.90
17423;DHT22;8829;47.932;7.810;2024-02-21T07:04:34;4.70;99.90
17423;DHT22;8829;47.932;7.810;2024-02-21T07:07:01;4.60;99.90
17423;DHT22;8829;47.932;7.810;2024-02-21T07:09:28;4.60;99.90
17423;DHT22;8829;47.932;7.810;2024-02-21T07:11:57;4.60;99.90
17423;DHT22;8829;47.932;7.810;2024-02-21T07:14:24;4.70;99.90
17423;DHT22;8829;47.932;7.810;2024-02-21T07:16:52;5.00;99.90
17423;DHT22;8829;47.932;7.810;2024-02-21T07:19:18;4.90;99.90
17423;DHT22;8829;47.932;7.810;2024-02-21T07:21:45;5.10;99.90
17423;DHT22;8829;47.932;7.810;2024-02-21T07:24:11;5.20;99.90
17423;DHT22;8829;47.932;7.810;2024-02-21T07:26:41;5.20;99.90
17423;DHT22;8829;47.932;7.810;2024-02-21T07:29:08;5.30;99.90
17423;DHT22;8829;47.932;7.810;2024-02-21T07:31:39;5.40;99.90
17423;DHT22;8829;47.932;7.810;2024-02-21T07:34:07;5.50;99.90
17423;DHT22;8829;47.932;7.810;2024-02-21T07:36:34;5.50;99.90
17423;DHT22;8829;47.932;7.810;2024-02-21T07:39:02;5.60;99.90
17423;DHT22;8829;47.932;7.810;2024-02-21T07:41:30;5.70;99.90
17423;DHT22;8829;47.932;7.810;2024-02-21T07:43:57;5.70;99.90
17423;DHT22;8829;47.932;7.810;2024-02-21T07:46:24;5.70;99.90
17423;DHT22;8829;47.932;7.810;2024-02-21T07:48:50;5.60;99.90
17423;DHT22;8829;47.932;7.810;2024-02-21T07:51:18;5.70;99.90
17423;DHT22;8829;47.932;7.810;2024-02-21T07:53:45;5.80;99.90
17423;DHT22;8829;47.932;7.810;2024-02-21T07:56:13;6.00;99.90
17423;DHT22;8829;47.932;7.810;2024-02-21T07:58:39;6.20;99.90
17423;DHT22;8829;47.932;7.810;2024-02-21T08:01:06;6.30;99.90
17423;DHT22;8829;47.932;7.810;2024-02-21T08:03:33;6.40;99.90
17423;DHT22;8829;47.932;7.810;2024-02-21T08:06:00;6.50;99.90
17423;DHT22;8829;47.932;7.810;2024-02-21T08:08:28;6.60;99.90
17423;DHT22;8829;47.932;7.810;2024-02-21T08:10:55;6.70;99.90
17423;DHT22;8829;47.932;7.810;2024-02-21T08:13:22;6.70;99.90
17423;DHT22;8829;47.932;7.810;2024-02-21T08:15:49;6.70;99.90
17423;DHT22;8829;47.932;7.810;2024-02-21T08:18:15;6.50;99.90
17423;DHT22;8829;47.932;7.810;2024-02-21T08:20:42;6.60;99.90
17423;DHT22;8829;47.932;7.810;2024-02-21T08:23:09;6.80;99.90
17423;DHT22;8829;47.932;7.810;2024-02-21T08:25:37;6.90;99.90
17423;DHT22;8829;47.932;7.810;2024-02-21T08:28:05;6.90;99.90
17423;DHT22;8829;47.932;7.810;2024-02-21T08:30:32;6.90;99.90
17423;DHT22;8829;47.932;7.810;2024-02-21T08:32:58;7.00;99.90
17423;DHT22;8829;47.932;7.810;2024-02-21T08:35:25;7.10;99.90
17423;DHT22;8829;47.932;7.810;2024-02-21T08:37:52;7.20;99.90
17423;DHT22;8829;47.932;7.810;2024-02-21T08:40:19;7.40;99.90
17423;DHT22;8829;47.932;7.810;2024-02-21T08:42:48;7.60;99.90
17423;DHT22;8829;47.932;7.810;2024-02-21T08:45:15;7.80;99.90
17423;DHT22;8829;47.932;7.810;2024-02-21T08:47:42;7.90;99.90
17423;DHT22;8829;47.932;7.810;2024-02-21T08:50:10;8.10;99.90
17423;DHT22;8829;47.932;7.810;2024-02-21T08:52:37;8.20;99.90
17423;DHT22;8829;47.932;7.810;2024-02-21T08:55:04;8.30;99.90
17423;DHT22;8829;47.932;7.810;2024-02-21T08:57:31;8.40;99.90
17423;DHT22;8829;47.932;7.810;2024-02-21T09:00:04;8.70;99.90
17423;DHT22;8829;47.932;7.810;2024-02-21T09:02:35;8.70;99.90
17423;DHT22;8829;47.932;7.810;2024-02-21T09:05:02;8.60;99.90
17423;DHT22;8829;47.932;7.810;2024-02-21T09:07:30;8.70;99.90
17423;DHT22;8829;47.932;7.810;2024-02-21T09:09:57;8.80;99.90
17423;DHT22;8829;47.932;7.810;2024-02-21T09:12:24;8.90;99.90
17423;DHT22;8829;47.932;7.810;2024-02-21T09:14:50;9.00;99.90
17423;DHT22;8829;47.932;7.810;2024-02-21T09:17:18;9.10;99.90
17423;DHT22;8829;47.932;7.810;2024-02-21T09:19:46;9.00;99.90
17423;DHT22;8829;47.932;7.810;2024-02-21T09:22:13;9.20;99.90
17423;DHT22;8829;47.932;7.810;2024-02-21T09:24:40;9.40;99.90
17423;DHT22;8829;47.932;7.810;2024-02-21T09:27:06;9.60;99.90
17423;DHT22;8829;47.932;7.810;2024-02-21T09:29:33;9.80;99.90
17423;DHT22;8829;47.932;7.810;2024-02-21T09:32:00;9.90;99.90
17423;DHT22;8829;47.932;7.810;2024-02-21T09:34:28;9.70;99.90
17423;DHT22;8829;47.932;7.810;2024-02-21T09:36:54;10.00;99.90
17423;DHT22;8829;47.932;7.810;2024-02-21T09:39:21;9.90;99.90
17423;DHT22;8829;47.932;7.810;2024-02-21T09:41:50;10.00;99.90
17423;DHT22;8829;47.932;7.810;2024-02-21T09:44:21;9.60;99.90
17423;DHT22;8829;47.932;7.810;2024-02-21T09:46:54;9.30;99.90
17423;DHT22;8829;47.932;7.810;2024-02-21T09:49:31;9.50;99.90
17423;DHT22;8829;47.932;7.810;2024-02-21T09:52:01;9.40;99.90
17423;DHT22;8829;47.932;7.810;2024-02-21T09:54:29;9.70;99.90
17423;DHT22;8829;47.932;7.810;2024-02-21T09:56:56;9.90;99.90
17423;DHT22;8829;47.932;7.810;2024-02-21T09:59:24;10.20;99.90
17423;DHT22;8829;47.932;7.810;2024-02-21T10:01:51;10.40;99.90
17423;DHT22;8829;47.932;7.810;2024-02-21T10:04:19;10.60;99.90
17423;DHT22;8829;47.932;7.810;2024-02-21T10:06:47;10.70;99.90
17423;DHT22;8829;47.932;7.810;2024-02-21T10:09:23;10.60;99.90
17423;DHT22;8829;47.932;7.810;2024-02-21T10:11:53;10.80;99.90
17423;DHT22;8829;47.932;7.810;2024-02-21T10:14:20;10.70;99.90
17423;DHT22;8829;47.932;7.810;2024-02-21T10:16:48;10.90;99.90
17423;DHT22;8829;47.932;7.810;2024-02-21T10:19:18;10.90;99.90
17423;DHT22;8829;47.932;7.810;2024-02-21T10:22:00;11.00;99.90
17423;DHT22;8829;47.932;7.810;2024-02-21T10:24:30;11.00;99.90
17423;DHT22;8829;47.932;7.810;2024-02-21T10:27:02;10.90;99.90
17423;DHT22;8829;47.932;7.810;2024-02-21T10:29:29;10.90;99.90
17423;DHT22;8829;47.932;7.810;2024-02-21T10:32:05;11.00;99.90
17423;DHT22;8829;47.932;7.810;2024-02-21T10:34:32;11.10;99.90
17423;DHT22;8829;47.932;7.810;2024-02-21T10:37:04;11.10;99.90
17423;DHT22;8829;47.932;7.810;2024-02-21T10:39:31;11.10;99.90
17423;DHT22;8829;47.932;7.810;2024-02-21T10:42:00;10.90;99.90
17423;DHT22;8829;47.932;7.810;2024-02-21T10:44:30;11.10;99.90
17423;DHT22;8829;47.932;7.810;2024-02-21T10:46:57;11.10;99.90
17423;DHT22;8829;47.932;7.810;2024-02-21T10:49:25;11.10;99.90
17423;DHT22;8829;47.932;7.810;2024-02-21T10:51:55;11.10;99.90
17423;DHT22;8829;47.932;7.810;2024-02-21T10:54:34;11.10;99.90
17423;DHT22;8829;47.932;7.810;2024-02-21T10:57:06;11.20;99.90
17423;DHT22;8829;47.932;7.810;2024-02-21T10:59:35;11.20;99.90
17423;DHT22;8829;47.932;7.810;2024-02-21T11:02:03;11.30;99.90
17423;DHT22;8829;47.932;7.810;2024-02-21T11:04:31;11.30;99.90
17423;DHT22;8829;47.932;7.810;2024-02-21T11:07:03;11.30;99.90
17423;DHT22;8829;47.932;7.810;2024-02-21T11:09:33;11.30;99.90
17423;DHT22;8829;47.932;7.810;2024-02-21T11:12:02;11.40;99.90
17423;DHT22;8829;47.932;7.810;2024-02-21T11:14:30;11.40;99.90
17423;DHT22;8829;47.932;7.810;2024-02-21T11:16:58;11.40;99.90
17423;DHT22;8829;47.932;7.810;2024-02-21T11:19:26;11.40;99.90
17423;DHT22;8829;47.932;7.810;2024-02-21T11:21:54;11.50;99.90
17423;DHT22;8829;47.932;7.810;2024-02-21T11:24:28;11.50;99.90
17423;DHT22;8829;47.932;7.810;2024-02-21T11:27:08;11.50;99.90
17423;DHT22;8829;47.932;7.810;2024-02-21T11:29:40;11.50;99.90
17423;DHT22;8829;47.932;7.810;2024-02-21T11:32:09;11.50;99.90
17423;DHT22;8829;47.932;7.810;2024-02-21T11:34:36;11.50;99.90
17423;DHT22;8829;47.932;7.810;2024-02-21T11:37:13;11.40;99.90
17423;DHT22;8829;47.932;7.810;2024-02-21T11:39:41;11.60;99.90
17423;DHT22;8829;47.932;7.810;2024-02-21T11:42:09;11.70;99.90
17423;DHT22;8829;47.932;7.810;2024-02-21T11:44:36;11.90;99.90
17423;DHT22;8829;47.932;7.810;2024-02-21T11:47:05;11.90;99.90
17423;DHT22;8829;47.932;7.810;2024-02-21T11:49:37;11.90;99.90
17423;DHT22;8829;47.932;7.810;2024-02-21T11:52:05;11.90;99.90
17423;DHT22;8829;47.932;7.810;2024-02-21T11:54:33;11.90;99.90
17423;DHT22;8829;47.932;7.810;2024-02-21T11:57:00;12.10;99.90
17423;DHT22;8829;47.932;7.810;2024-02-21T11:59:30;12.10;99.90
17423;DHT22;8829;47.932;7.810;2024-02-21T12:01:58;12.10;99.90
17423;DHT22;8829;47.932;7.810;2024-02-21T12:04:25;12.20;99.90
17423;DHT22;8829;47.932;7.810;2024-02-21T12:06:53;12.20;99.90
17423;DHT22;8829;47.932;7.810;2024-02-21T12:09:22;12.20;99.90
17423;DHT22;8829;47.932;7.810;2024-02-21T12:11:57;12.30;99.90
17423;DHT22;8829;47.932;7.810;2024-02-21T12:14:25;12.30;99.90
17423;DHT22;8829;47.932;7.810;2024-02-21T12:16:58;12.20;99.90
17423;DHT22;8829;47.932;7.810;2024-02-21T12:19:26;12.20;99.90
17423;DHT22;8829;47.932;7.810;2024-02-21T12:21:55;12.40;99.90
17423;DHT22;8829;47.932;7.810;2024-02-21T12:24:24;12.40;99.90
17423;DHT22;8829;47.932;7.810;2024-02-21T12:26:51;12.40;99.90
17423;DHT22;8829;47.932;7.810;2024-02-21T12:29:19;12.40;99.90
17423;DHT22;8829;47.932;7.810;2024-02-21T12:31:46;12.40;99.90
17423;DHT22;8829;47.932;7.810;2024-02-21T12:34:14;12.50;99.90
17423;DHT22;8829;47.932;7.810;2024-02-21T12:36:43;12.40;99.90
17423;DHT22;8829;47.932;7.810;2024-02-21T12:39:10;12.50;99.90
17423;DHT22;8829;47.932;7.810;2024-02-21T12:41:37;12.40;99.90
17423;DHT22;8829;47.932;7.810;2024-02-21T12:44:04;12.40;99.90
17423;DHT22;8829;47.932;7.810;2024-02-21T12:46:32;12.50;99.90
17423;DHT22;8829;47.932;7.810;2024-02-21T12:48:59;12.60;99.90
17423;DHT22;8829;47.932;7.810;2024-02-21T12:51:27;12.50;99.90
17423;DHT22;8829;47.932;7.810;2024-02-21T12:53:54;12.50;99.90
17423;DHT22;8829;47.932;7.810;2024-02-21T12:56:22;12.50;99.90
17423;DHT22;8829;47.932;7.810;2024-02-21T12:58:49;12.40;99.90
17423;DHT22;8829;47.932;7.810;2024-02-21T13:01:16;12.60;99.90
17423;DHT22;8829;47.932;7.810;2024-02-21T13:03:43;12.50;99.90
17423;DHT22;8829;47.932;7.810;2024-02-21T13:06:10;12.50;99.90
17423;DHT22;8829;47.932;7.810;2024-02-21T13:08:38;12.50;99.90
17423;DHT22;8829;47.932;7.810;2024-02-21T13:11:06;12.60;99.90
17423;DHT22;8829;47.932;7.810;2024-02-21T13:13:32;12.60;99.90
17423;DHT22;8829;47.932;7.810;2024-02-21T13:15:59;12.60;99.90
17423;DHT22;8829;47.932;7.810;2024-02-21T13:18:26;12.60;99.90
17423;DHT22;8829;47.932;7.810;2024-02-21T13:20:53;12.60;99.90
17423;DHT22;8829;47.932;7.810;2024-02-21T13:23:19;12.60;99.90
17423;DHT22;8829;47.932;7.810;2024-02-21T13:25:49;12.50;99.90
17423;DHT22;8829;47.932;7.810;2024-02-21T13:28:16;12.50;99.90
17423;DHT22;8829;47.932;7.810;2024-02-21T13:30:43;12.50;99.90
17423;DHT22;8829;47.932;7.810;2024-02-21T13:33:09;12.40;99.90
17423;DHT22;8829;47.932;7.810;2024-02-21T13:35:37;12.30;99.90
17423;DHT22;8829;47.932;7.810;2024-02-21T13:38:04;12.30;99.90
17423;DHT22;8829;47.932;7.810;2024-02-21T13:40:31;12.30;99.90
17423;DHT22;8829;47.932;7.810;2024-02-21T13:42:59;12.30;99.90
17423;DHT22;8829;47.932;7.810;2024-02-21T13:45:26;12.10;99.90
17423;DHT22;8829;47.932;7.810;2024-02-21T13:47:53;12.20;99.90
17423;DHT22;8829;47.932;7.810;2024-02-21T13:50:27;12.20;99.90
17423;DHT22;8829;47.932;7.810;2024-02-21T13:52:55;12.20;99.90
17423;DHT22;8829;47.932;7.810;2024-02-21T13:55:22;12.10;99.90
17423;DHT22;8829;47.932;7.810;2024-02-21T13:57:51;12.20;99.90
17423;DHT22;8829;47.932;7.810;2024-02-21T14:00:20;12.20;99.90
17423;DHT22;8829;47.932;7.810;2024-02-21T14:02:46;12.10;99.90
17423;DHT22;8829;47.932;7.810;2024-02-21T14:05:13;12.20;99.90
17423;DHT22;8829;47.932;7.810;2024-02-21T14:07:40;12.20;99.90
17423;DHT22;8829;47.932;7.810;2024-02-21T14:10:08;12.10;99.90
17423;DHT22;8829;47.932;7.810;2024-02-21T14:12:35;12.10;99.90
17423;DHT22;8829;47.932;7.810;2024-02-21T14:15:03;12.10;99.90
17423;DHT22;8829;47.932;7.810;2024-02-21T14:17:32;12.10;99.90
17423;DHT22;8829;47.932;7.810;2024-02-21T14:19:58;12.00;99.90
17423;DHT22;8829;47.932;7.810;2024-02-21T14:22:25;12.10;99.90
17423;DHT22;8829;47.932;7.810;2024-02-21T14:24:52;12.00;99.90
17423;DHT22;8829;47.932;7.810;2024-02-21T14:27:18;12.00;99.90
17423;DHT22;8829;47.932;7.810;2024-02-21T14:29:45;12.00;99.90
17423;DHT22;8829;47.932;7.810;2024-02-21T14:32:13;12.10;99.90
17423;DHT22;8829;47.932;7.810;2024-02-21T14:34:41;12.10;99.90
17423;DHT22;8829;47.932;7.810;2024-02-21T14:37:07;12.10;99.90
17423;DHT22;8829;47.932;7.810;2024-02-21T14:39:34;12.20;99.90
17423;DHT22;8829;47.932;7.810;2024-02-21T14:42:01;12.30;99.90
17423;DHT22;8829;47.932;7.810;2024-02-21T14:44:28;12.20;99.90
17423;DHT22;8829;47.932;7.810;2024-02-21T14:46:55;12.10;99.90
17423;DHT22;8829;47.932;7.810;2024-02-21T14:49:21;12.10;99.90
17423;DHT22;8829;47.932;7.810;2024-02-21T14:51:49;12.00;99.90
17423;DHT22;8829;47.932;7.810;2024-02-21T14:54:16;12.10;99.90
17423;DHT22;8829;47.932;7.810;2024-02-21T14:56:43;12.10;99.90
17423;DHT22;8829;47.932;7.810;2024-02-21T14:59:12;12.00;99.90
17423;DHT22;8829;47.932;7.810;2024-02-21T15:01:38;12.00;99.90
17423;DHT22;8829;47.932;7.810;2024-02-21T15:04:05;11.90;99.90
17423;DHT22;8829;47.932;7.810;2024-02-21T15:06:32;12.10;99.90
17423;DHT22;8829;47.932;7.810;2024-02-21T15:09:03;12.20;99.90
17423;DHT22;8829;47.932;7.810;2024-02-21T15:11:31;12.30;99.90
17423;DHT22;8829;47.932;7.810;2024-02-21T15:13:58;12.40;99.90
17423;DHT22;8829;47.932;7.810;2024-02-21T15:16:24;12.40;99.90
17423;DHT22;8829;47.932;7.810;2024-02-21T15:18:51;12.40;98.00
17423;DHT22;8829;47.932;7.810;2024-02-21T15:21:18;12.50;95.30
17423;DHT22;8829;47.932;7.810;2024-02-21T15:23:45;12.50;94.30
17423;DHT22;8829;47.932;7.810;2024-02-21T15:26:13;12.50;92.40
17423;DHT22;8829;47.932;7.810;2024-02-21T15:28:40;12.60;89.90
17423;DHT22;8829;47.932;7.810;2024-02-21T15:31:07;12.60;91.40
17423;DHT22;8829;47.932;7.810;2024-02-21T15:33:34;12.60;90.00
17423;DHT22;8829;47.932;7.810;2024-02-21T15:36:00;12.60;90.80
17423;DHT22;8829;47.932;7.810;2024-02-21T15:38:27;12.60;92.60
17423;DHT22;8829;47.932;7.810;2024-02-21T15:40:54;12.50;92.70
17423;DHT22;8829;47.932;7.810;2024-02-21T15:43:22;12.40;99.90
17423;DHT22;8829;47.932;7.810;2024-02-21T15:45:50;12.30;99.90
17423;DHT22;8829;47.932;7.810;2024-02-21T15:48:16;12.10;99.90
17423;DHT22;8829;47.932;7.810;2024-02-21T15:50:43;11.90;99.90
17423;DHT22;8829;47.932;7.810;2024-02-21T15:53:10;12.00;99.90
17423;DHT22;8829;47.932;7.810;2024-02-21T15:55:37;12.00;98.60